createdAt,value
2019-05-12T00:00:53.360Z,164.00
2019-05-12T00:01:53.378Z,168.00
2019-05-12T00:02:53.397Z,164.00
2019-05-12T00:03:53.418Z,172.00
2019-05-12T00:04:53.437Z,152.00
2019-05-12T00:05:53.461Z,176.00
2019-05-12T00:06:53.474Z,208.00
2019-05-12T00:07:53.493Z,204.00
2019-05-12T00:08:53.514Z,172.00
2019-05-12T00:09:53.531Z,148.00
2019-05-12T00:10:53.549Z,160.00
2019-05-12T00:11:53.569Z,176.00
2019-05-12T00:12:53.585Z,184.00
2019-05-12T00:13:53.607Z,220.00
2019-05-12T00:14:53.647Z,232.00
2019-05-12T00:15:53.647Z,220.00
2019-05-12T00:16:53.661Z,200.00
2019-05-12T00:17:53.679Z,188.00
2019-05-12T00:18:53.697Z,192.00
2019-05-12T00:19:53.717Z,204.00
2019-05-12T00:20:53.741Z,216.00
2019-05-12T00:21:53.753Z,236.00
2019-05-12T00:22:53.776Z,244.00
2019-05-12T00:23:53.790Z,236.00
2019-05-12T00:24:53.819Z,248.00
2019-05-12T00:25:53.833Z,252.00
2019-05-12T00:26:53.846Z,248.00
2019-05-12T00:27:53.863Z,248.00
2019-05-12T00:28:53.885Z,244.00
2019-05-12T00:29:53.906Z,264.00
2019-05-12T00:30:53.919Z,296.00
2019-05-12T00:31:53.940Z,304.00
2019-05-12T00:32:53.959Z,276.00
2019-05-12T00:33:53.978Z,248.00
2019-05-12T00:34:53.997Z,264.00
2019-05-12T00:35:54.015Z,272.00
2019-05-12T00:36:54.035Z,264.00
2019-05-12T00:37:54.052Z,236.00
2019-05-12T00:38:54.070Z,208.00
2019-05-12T00:39:54.090Z,208.00
2019-05-12T00:40:54.107Z,232.00
2019-05-12T00:41:54.130Z,272.00
2019-05-12T00:42:54.148Z,296.00
2019-05-12T00:43:54.194Z,312.00
2019-05-12T00:44:54.199Z,288.00
2019-05-12T00:45:54.216Z,260.00
2019-05-12T00:46:54.228Z,288.00
2019-05-12T00:47:54.241Z,316.00
2019-05-12T00:48:54.258Z,320.00
2019-05-12T00:49:54.278Z,316.00
2019-05-12T00:50:54.299Z,316.00
2019-05-12T00:51:54.319Z,312.00
2019-05-12T00:52:54.453Z,292.00
2019-05-12T00:53:54.357Z,268.00
2019-05-12T00:54:54.373Z,244.00
2019-05-12T00:55:54.390Z,240.00
2019-05-12T00:56:54.412Z,228.00
2019-05-12T00:57:54.457Z,240.00
2019-05-12T00:58:54.448Z,268.00
2019-05-12T00:59:54.471Z,296.00
2019-05-12T01:00:54.489Z,332.00
2019-05-12T01:01:54.505Z,384.00
2019-05-12T01:02:54.526Z,448.00
2019-05-12T01:03:54.545Z,508.00
2019-05-12T01:04:54.566Z,548.00
2019-05-12T01:05:54.625Z,540.00
2019-05-12T01:06:54.617Z,448.00
2019-05-12T01:07:54.619Z,352.00
2019-05-12T01:08:54.638Z,316.00
2019-05-12T01:09:54.657Z,284.00
2019-05-12T01:10:54.676Z,292.00
2019-05-12T01:11:54.697Z,300.00
2019-05-12T01:12:54.714Z,324.00
2019-05-12T01:13:54.734Z,400.00
2019-05-12T01:14:54.753Z,480.00
2019-05-12T01:15:54.771Z,560.00
2019-05-12T01:16:54.792Z,604.00
2019-05-12T01:17:54.813Z,664.00
2019-05-12T01:18:54.826Z,692.00
2019-05-12T01:19:54.847Z,660.00
2019-05-12T01:20:54.868Z,616.00
2019-05-12T01:21:54.886Z,596.00
2019-05-12T01:22:54.904Z,584.00
2019-05-12T01:24:00.499Z,612.00
2019-05-12T01:24:54.946Z,652.00
2019-05-12T01:25:54.968Z,612.00
2019-05-12T01:26:54.979Z,556.00
2019-05-12T01:27:55.001Z,540.00
2019-05-12T01:28:55.019Z,508.00
2019-05-12T01:29:55.038Z,464.00
2019-05-12T01:30:55.058Z,412.00
2019-05-12T01:31:55.075Z,416.00
2019-05-12T01:32:55.095Z,400.00
2019-05-12T01:33:55.116Z,380.00
2019-05-12T01:34:57.662Z,396.00
2019-05-12T01:35:55.153Z,412.00
2019-05-12T01:36:55.173Z,352.00
2019-05-12T01:37:55.192Z,260.00
2019-05-12T01:38:55.209Z,204.00
2019-05-12T01:39:59.703Z,184.00
2019-05-12T01:40:55.250Z,212.00
2019-05-12T01:41:55.268Z,260.00
2019-05-12T01:42:57.526Z,320.00
2019-05-12T01:43:55.306Z,344.00
2019-05-12T01:44:55.327Z,388.00
2019-05-12T01:45:55.346Z,380.00
2019-05-12T01:46:57.770Z,360.00
2019-05-12T01:47:55.389Z,336.00
2019-05-12T01:48:55.469Z,356.00
2019-05-12T01:49:57.973Z,420.00
2019-05-12T01:50:57.829Z,464.00
2019-05-12T01:51:55.472Z,548.00
2019-05-12T01:52:55.481Z,648.00
2019-05-12T01:54:10.194Z,728.00
2019-05-12T01:54:55.517Z,752.00
2019-05-12T01:55:55.538Z,796.00
2019-05-12T01:56:55.562Z,848.00
2019-05-12T01:57:57.655Z,920.00
2019-05-12T01:58:57.752Z,904.00
2019-05-12T01:59:58.138Z,872.00
2019-05-12T02:00:55.745Z,864.00
2019-05-12T02:01:57.967Z,840.00
2019-05-12T02:02:58.141Z,816.00
2019-05-12T02:03:55.690Z,744.00
2019-05-12T02:04:55.710Z,728.00
2019-05-12T02:05:57.818Z,700.00
2019-05-12T02:06:57.770Z,668.00
2019-05-12T02:07:58.111Z,672.00
2019-05-12T02:08:58.073Z,708.00
2019-05-12T02:09:57.957Z,756.00
2019-05-12T02:10:55.824Z,776.00
2019-05-12T02:11:58.101Z,744.00
2019-05-12T02:12:55.866Z,664.00
2019-05-12T02:13:57.902Z,596.00
2019-05-12T02:14:55.903Z,604.00
2019-05-12T02:15:57.888Z,720.00
2019-05-12T02:16:57.837Z,748.00
2019-05-12T02:17:58.599Z,700.00
2019-05-12T02:18:58.181Z,712.00
2019-05-12T02:19:58.582Z,760.00
2019-05-12T02:20:57.685Z,804.00
2019-05-12T02:21:57.936Z,872.00
2019-05-12T02:22:58.116Z,840.00
2019-05-12T02:23:58.141Z,836.00
2019-05-12T02:24:58.322Z,864.00
2019-05-12T02:25:56.116Z,844.00
2019-05-12T02:26:57.889Z,820.00
2019-05-12T02:27:58.123Z,836.00
2019-05-12T02:28:58.434Z,868.00
2019-05-12T02:29:58.471Z,848.00
2019-05-12T02:30:59.007Z,864.00
2019-05-12T02:31:58.981Z,888.00
2019-05-12T02:32:59.073Z,916.00
2019-05-12T02:33:56.284Z,900.00
2019-05-12T02:34:56.300Z,896.00
2019-05-12T02:35:56.314Z,892.00
2019-05-12T02:36:56.341Z,888.00
2019-05-12T02:37:56.374Z,900.00
2019-05-12T02:38:56.380Z,876.00
2019-05-12T02:39:56.396Z,936.00
2019-05-12T02:40:56.417Z,980.00
2019-05-12T02:41:56.442Z,1000.00
2019-05-12T02:42:56.475Z,976.00
2019-05-12T02:43:56.481Z,888.00
2019-05-12T02:44:56.498Z,816.00
2019-05-12T02:45:56.513Z,928.00
2019-05-12T02:46:56.537Z,1000.00
2019-05-12T02:47:56.553Z,980.00
2019-05-12T02:48:56.571Z,912.00
2019-05-12T02:49:56.593Z,908.00
2019-05-12T02:50:56.611Z,920.00
2019-05-12T02:51:56.631Z,936.00
2019-05-12T02:52:56.659Z,928.00
2019-05-12T02:53:56.671Z,984.00
2019-05-12T02:55:00.515Z,976.00
2019-05-12T02:55:56.740Z,956.00
2019-05-12T02:56:56.735Z,936.00
2019-05-12T02:57:56.793Z,916.00
2019-05-12T02:58:56.777Z,936.00
2019-05-12T02:59:56.791Z,880.00
2019-05-12T03:00:56.812Z,856.00
2019-05-12T03:01:56.831Z,944.00
2019-05-12T03:02:56.851Z,996.00
2019-05-12T03:03:56.872Z,948.00
2019-05-12T03:04:56.905Z,856.00
2019-05-12T03:05:56.917Z,812.00
2019-05-12T03:06:56.951Z,700.00
2019-05-12T03:07:56.976Z,752.00
2019-05-12T03:08:56.972Z,816.00
2019-05-12T03:09:57.005Z,740.00
2019-05-12T03:10:57.016Z,724.00
2019-05-12T03:11:57.064Z,796.00
2019-05-12T03:12:57.055Z,688.00
2019-05-12T03:13:57.075Z,608.00
2019-05-12T03:14:57.093Z,712.00
2019-05-12T03:15:57.115Z,868.00
2019-05-12T03:16:57.136Z,900.00
2019-05-12T03:17:57.156Z,904.00
2019-05-12T03:18:57.173Z,784.00
2019-05-12T03:19:57.196Z,796.00
2019-05-12T03:20:57.213Z,748.00
2019-05-12T03:21:57.242Z,776.00
2019-05-12T03:22:57.257Z,840.00
2019-05-12T03:23:57.274Z,912.00
2019-05-12T03:25:13.396Z,940.00
2019-05-12T03:25:57.323Z,936.00
2019-05-12T03:26:57.365Z,1000.00
2019-05-12T03:27:57.358Z,1016.00
2019-05-12T03:28:57.377Z,960.00
2019-05-12T03:29:57.398Z,908.00
2019-05-12T03:30:58.478Z,912.00
2019-05-12T03:31:57.632Z,892.00
2019-05-12T03:32:58.574Z,1064.00
2019-05-12T03:34:00.150Z,988.00
2019-05-12T03:34:58.302Z,1004.00
2019-05-12T03:36:00.737Z,932.00
2019-05-12T03:36:59.150Z,808.00
2019-05-12T03:37:57.563Z,764.00
2019-05-12T03:38:57.582Z,816.00
2019-05-12T03:39:57.630Z,756.00
2019-05-12T03:40:57.622Z,668.00
2019-05-12T03:41:57.642Z,624.00
2019-05-12T03:42:57.668Z,676.00
2019-05-12T03:43:57.686Z,796.00
2019-05-12T03:44:57.705Z,752.00
2019-05-12T03:45:57.733Z,792.00
2019-05-12T03:46:57.745Z,804.00
2019-05-12T03:47:57.764Z,880.00
2019-05-12T03:48:57.789Z,892.00
2019-05-12T03:49:57.807Z,864.00
2019-05-12T03:50:57.828Z,800.00
2019-05-12T03:51:57.851Z,840.00
2019-05-12T03:52:57.869Z,900.00
2019-05-12T03:53:57.890Z,920.00
2019-05-12T03:54:57.906Z,968.00
2019-05-12T03:55:57.926Z,932.00
2019-05-12T03:56:57.959Z,856.00
2019-05-12T03:57:57.978Z,704.00
2019-05-12T03:58:58.001Z,584.00
2019-05-12T03:59:58.011Z,600.00
2019-05-12T04:00:58.031Z,732.00
2019-05-12T04:01:58.056Z,836.00
2019-05-12T04:02:58.073Z,912.00
2019-05-12T04:03:58.097Z,856.00
2019-05-12T04:04:58.113Z,844.00
2019-05-12T04:05:58.144Z,820.00
2019-05-12T04:06:58.201Z,880.00
2019-05-12T04:07:58.190Z,892.00
2019-05-12T04:08:59.989Z,980.00
2019-05-12T04:09:58.214Z,1076.00
2019-05-12T04:10:58.237Z,1000.00
2019-05-12T04:11:58.264Z,876.00
2019-05-12T04:12:58.288Z,840.00
2019-05-12T04:13:58.299Z,972.00
2019-05-12T04:14:58.331Z,1096.00
2019-05-12T04:15:58.339Z,968.00
2019-05-12T04:16:58.361Z,968.00
2019-05-12T04:17:58.389Z,1064.00
2019-05-12T04:18:58.398Z,1068.00
2019-05-12T04:19:58.419Z,1060.00
2019-05-12T04:20:58.439Z,1148.00
2019-05-12T04:21:58.466Z,1048.00
2019-05-12T04:22:58.483Z,1068.00
2019-05-12T04:23:58.506Z,1100.00
2019-05-12T04:24:58.537Z,1096.00
2019-05-12T04:26:08.652Z,1160.00
2019-05-12T04:26:58.602Z,1168.00
2019-05-12T04:27:58.584Z,1096.00
2019-05-12T04:28:58.610Z,1040.00
2019-05-12T04:29:58.637Z,1064.00
2019-05-12T04:30:58.663Z,1172.00
2019-05-12T04:31:58.674Z,1184.00
2019-05-12T04:32:58.693Z,1176.00
2019-05-12T04:33:58.731Z,1088.00
2019-05-12T04:34:58.733Z,988.00
2019-05-12T04:35:58.755Z,1044.00
2019-05-12T04:36:58.775Z,1000.00
2019-05-12T04:37:58.800Z,968.00
2019-05-12T04:38:58.817Z,984.00
2019-05-12T04:39:58.843Z,936.00
2019-05-12T04:40:58.861Z,896.00
2019-05-12T04:41:59.885Z,1024.00
2019-05-12T04:42:59.922Z,1004.00
2019-05-12T04:43:58.920Z,900.00
2019-05-12T04:44:58.947Z,1008.00
2019-05-12T04:45:58.975Z,1120.00
2019-05-12T04:46:58.986Z,1132.00
2019-05-12T04:47:59.007Z,1116.00
2019-05-12T04:48:59.027Z,1140.00
2019-05-12T04:49:59.051Z,1076.00
2019-05-12T04:50:59.078Z,1000.00
2019-05-12T04:51:59.105Z,988.00
2019-05-12T04:52:59.119Z,980.00
2019-05-12T04:53:59.279Z,884.00
2019-05-12T04:54:59.178Z,792.00
2019-05-12T04:56:10.565Z,960.00
2019-05-12T04:56:59.260Z,1072.00
2019-05-12T04:57:59.224Z,1036.00
2019-05-12T04:58:59.242Z,1000.00
2019-05-12T04:59:59.266Z,960.00
2019-05-12T05:00:59.322Z,1016.00
2019-05-12T05:01:59.302Z,1160.00
2019-05-12T05:02:59.325Z,1204.00
2019-05-12T05:03:59.345Z,1148.00
2019-05-12T05:04:59.370Z,1128.00
2019-05-12T05:05:59.387Z,1068.00
2019-05-12T05:06:59.412Z,960.00
2019-05-12T05:07:59.432Z,908.00
2019-05-12T05:08:59.454Z,900.00
2019-05-12T05:09:59.473Z,844.00
2019-05-12T05:10:59.493Z,876.00
2019-05-12T05:11:59.518Z,800.00
2019-05-12T05:12:59.537Z,724.00
2019-05-12T05:13:59.564Z,660.00
2019-05-12T05:14:59.580Z,620.00
2019-05-12T05:15:59.610Z,640.00
2019-05-12T05:16:59.626Z,708.00
2019-05-12T05:17:59.645Z,708.00
2019-05-12T05:18:59.665Z,736.00
2019-05-12T05:19:59.686Z,788.00
2019-05-12T05:20:59.707Z,868.00
2019-05-12T05:21:59.735Z,1044.00
2019-05-12T05:22:59.747Z,1136.00
2019-05-12T05:23:59.769Z,1128.00
2019-05-12T05:24:59.790Z,1228.00
2019-05-12T05:25:59.811Z,1180.00
2019-05-12T05:26:59.834Z,1052.00
2019-05-12T05:27:59.857Z,852.00
2019-05-12T05:28:59.878Z,680.00
2019-05-12T05:29:59.901Z,600.00
2019-05-12T05:30:59.922Z,588.00
2019-05-12T05:31:59.954Z,656.00
2019-05-12T05:32:59.961Z,784.00
2019-05-12T05:34:00.006Z,1000.00
2019-05-12T05:35:00.005Z,1048.00
2019-05-12T05:36:00.030Z,1052.00
2019-05-12T05:37:01.606Z,1084.00
2019-05-12T05:38:00.069Z,1128.00
2019-05-12T05:39:01.676Z,1256.00
2019-05-12T05:40:00.113Z,1172.00
2019-05-12T05:41:04.892Z,1036.00
2019-05-12T05:42:00.154Z,948.00
2019-05-12T05:43:03.708Z,908.00
2019-05-12T05:44:00.198Z,900.00
2019-05-12T05:45:00.233Z,820.00
2019-05-12T05:46:02.629Z,780.00
2019-05-12T05:47:00.259Z,756.00
2019-05-12T05:48:07.465Z,712.00
2019-05-12T05:49:00.302Z,720.00
2019-05-12T05:50:00.325Z,880.00
2019-05-12T05:51:07.378Z,1184.00
2019-05-12T05:52:00.376Z,1352.00
2019-05-12T05:53:00.387Z,1320.00
2019-05-12T05:54:00.412Z,1268.00
2019-05-12T05:55:07.835Z,1188.00
2019-05-12T05:56:00.540Z,1080.00
2019-05-12T05:57:03.048Z,1048.00
2019-05-12T05:58:05.843Z,976.00
2019-05-12T05:59:00.528Z,840.00
2019-05-12T06:00:00.541Z,788.00
2019-05-12T06:01:03.770Z,840.00
2019-05-12T06:02:00.586Z,868.00
2019-05-12T06:03:00.609Z,976.00
2019-05-12T06:04:04.378Z,1144.00
2019-05-12T06:05:00.668Z,1292.00
2019-05-12T06:06:01.432Z,1372.00
2019-05-12T06:07:00.698Z,1380.00
2019-05-12T06:08:00.713Z,1356.00
2019-05-12T06:09:00.753Z,1312.00
2019-05-12T06:10:00.756Z,1352.00
2019-05-12T06:11:00.774Z,1388.00
2019-05-12T06:12:05.087Z,1340.00
2019-05-12T06:13:00.821Z,1276.00
2019-05-12T06:14:05.474Z,1252.00
2019-05-12T06:15:00.873Z,1160.00
2019-05-12T06:16:00.903Z,1024.00
2019-05-12T06:17:00.910Z,916.00
2019-05-12T06:18:03.323Z,936.00
2019-05-12T06:19:00.949Z,980.00
2019-05-12T06:20:00.975Z,956.00
2019-05-12T06:21:03.287Z,988.00
2019-05-12T06:22:01.255Z,1040.00
2019-05-12T06:23:01.038Z,992.00
2019-05-12T06:24:03.343Z,1096.00
2019-05-12T06:25:01.079Z,1188.00
2019-05-12T06:26:03.962Z,1296.00
2019-05-12T06:27:14.383Z,1232.00
2019-05-12T06:28:04.024Z,1176.00
2019-05-12T06:29:01.171Z,1068.00
2019-05-12T06:30:05.860Z,1036.00
2019-05-12T06:31:01.209Z,984.00
2019-05-12T06:32:06.255Z,872.00
2019-05-12T06:33:01.255Z,808.00
2019-05-12T06:34:06.303Z,812.00
2019-05-12T06:35:03.925Z,836.00
2019-05-12T06:36:03.228Z,776.00
2019-05-12T06:37:03.062Z,756.00
2019-05-12T06:38:01.918Z,684.00
2019-05-12T06:39:01.386Z,700.00
2019-05-12T06:40:03.551Z,752.00
2019-05-12T06:41:03.474Z,732.00
2019-05-12T06:42:08.742Z,816.00
2019-05-12T06:43:01.471Z,808.00
2019-05-12T06:44:03.608Z,900.00
2019-05-12T06:45:03.694Z,1012.00
2019-05-12T06:46:03.523Z,1108.00
2019-05-12T06:47:06.131Z,1124.00
2019-05-12T06:48:03.407Z,1048.00
2019-05-12T06:49:10.274Z,992.00
2019-05-12T06:50:03.671Z,900.00
2019-05-12T06:51:03.880Z,840.00
2019-05-12T06:52:06.325Z,780.00
2019-05-12T06:53:01.687Z,652.00
2019-05-12T06:54:07.430Z,560.00
2019-05-12T06:55:04.048Z,516.00
2019-05-12T06:56:01.754Z,528.00
2019-05-12T06:57:18.533Z,560.00
2019-05-12T06:58:01.797Z,588.00
2019-05-12T06:59:09.749Z,644.00
2019-05-12T07:00:04.353Z,704.00
2019-05-12T07:01:10.098Z,700.00
2019-05-12T07:02:03.349Z,668.00
2019-05-12T07:03:04.040Z,620.00
2019-05-12T07:04:08.255Z,628.00
2019-05-12T07:05:04.173Z,704.00
2019-05-12T07:06:03.930Z,876.00
2019-05-12T07:07:03.642Z,1048.00
2019-05-12T07:08:04.117Z,1140.00
2019-05-12T07:09:08.974Z,1144.00
2019-05-12T07:10:08.001Z,1160.00
2019-05-12T07:11:05.786Z,1132.00
2019-05-12T07:12:06.676Z,1132.00
2019-05-12T07:13:05.752Z,1160.00
2019-05-12T07:14:07.871Z,1152.00
2019-05-12T07:15:03.767Z,1120.00
2019-05-12T07:16:03.697Z,1100.00
2019-05-12T07:17:05.615Z,1124.00
2019-05-12T07:18:04.299Z,1112.00
2019-05-12T07:19:07.634Z,1112.00
2019-05-12T07:20:03.984Z,1124.00
2019-05-12T07:21:04.120Z,1168.00
2019-05-12T07:22:03.625Z,1236.00
2019-05-12T07:23:04.025Z,1288.00
2019-05-12T07:24:06.802Z,1308.00
2019-05-12T07:25:04.541Z,1260.00
2019-05-12T07:26:06.668Z,1236.00
2019-05-12T07:27:08.756Z,1220.00
2019-05-12T07:28:07.282Z,1212.00
2019-05-12T07:29:04.411Z,1148.00
2019-05-12T07:30:04.675Z,1112.00
2019-05-12T07:31:03.883Z,1192.00
2019-05-12T07:32:07.223Z,1260.00
2019-05-12T07:33:04.507Z,1244.00
2019-05-12T07:34:06.934Z,1244.00
2019-05-12T07:35:03.946Z,1192.00
2019-05-12T07:36:06.299Z,1180.00
2019-05-12T07:37:04.375Z,1196.00
2019-05-12T07:38:04.755Z,1212.00
2019-05-12T07:39:04.345Z,1196.00
2019-05-12T07:40:04.785Z,1084.00
2019-05-12T07:41:08.851Z,1060.00
2019-05-12T07:42:03.598Z,892.00
2019-05-12T07:43:03.996Z,844.00
2019-05-12T07:44:03.627Z,904.00
2019-05-12T07:45:04.022Z,800.00
2019-05-12T07:46:06.829Z,748.00
2019-05-12T07:47:03.627Z,752.00
2019-05-12T07:48:08.189Z,732.00
2019-05-12T07:49:03.923Z,684.00
2019-05-12T07:50:04.491Z,704.00
2019-05-12T07:51:04.158Z,828.00
2019-05-12T07:52:03.660Z,1044.00
2019-05-12T07:53:04.091Z,1172.00
2019-05-12T07:54:04.074Z,1188.00
2019-05-12T07:55:04.325Z,1196.00
2019-05-12T07:56:04.101Z,1092.00
2019-05-12T07:57:11.488Z,1096.00
2019-05-12T07:58:10.237Z,1076.00
2019-05-12T07:59:04.403Z,996.00
2019-05-12T08:00:03.751Z,780.00
2019-05-12T08:01:07.179Z,668.00
2019-05-12T08:02:03.951Z,524.00
2019-05-12T08:03:08.188Z,496.00
2019-05-12T08:04:04.579Z,516.00
2019-05-12T08:05:03.897Z,508.00
2019-05-12T08:06:04.586Z,500.00
2019-05-12T08:07:03.920Z,504.00
2019-05-12T08:08:06.964Z,544.00
2019-05-12T08:09:04.143Z,584.00
2019-05-12T08:10:07.340Z,596.00
2019-05-12T08:11:04.478Z,520.00
2019-05-12T08:12:04.084Z,460.00
2019-05-12T08:13:04.356Z,432.00
2019-05-12T08:14:03.690Z,444.00
2019-05-12T08:15:07.811Z,432.00
2019-05-12T08:16:03.789Z,460.00
2019-05-12T08:17:11.106Z,444.00
2019-05-12T08:18:07.219Z,464.00
2019-05-12T08:19:04.109Z,488.00
2019-05-12T08:20:04.497Z,536.00
2019-05-12T08:21:03.893Z,540.00
2019-05-12T08:22:04.310Z,504.00
2019-05-12T08:23:08.869Z,388.00
2019-05-12T08:24:03.908Z,324.00
2019-05-12T08:25:04.299Z,296.00
2019-05-12T08:26:12.107Z,324.00
2019-05-12T08:27:06.422Z,320.00
2019-05-12T08:28:12.387Z,336.00
2019-05-12T08:29:04.402Z,332.00
2019-05-12T08:30:06.193Z,344.00
2019-05-12T08:31:03.829Z,360.00
2019-05-12T08:32:03.918Z,412.00
2019-05-12T08:33:09.274Z,340.00
2019-05-12T08:34:04.321Z,288.00
2019-05-12T08:35:05.078Z,296.00
2019-05-12T08:36:11.478Z,304.00
2019-05-12T08:37:04.445Z,256.00
2019-05-12T08:38:04.141Z,192.00
2019-05-12T08:39:06.378Z,204.00
2019-05-12T08:40:07.505Z,260.00
2019-05-12T08:41:04.377Z,292.00
2019-05-12T08:42:04.199Z,296.00
2019-05-12T08:43:07.975Z,284.00
2019-05-12T08:44:04.728Z,248.00
2019-05-12T08:45:07.663Z,176.00
2019-05-12T08:46:06.990Z,152.00
2019-05-12T08:47:04.169Z,112.00
2019-05-12T08:48:04.234Z,112.00
2019-05-12T08:49:05.438Z,104.00
2019-05-12T08:50:04.797Z,96.00
2019-05-12T08:51:13.224Z,92.00
2019-05-12T08:52:04.340Z,88.00
2019-05-12T08:53:04.893Z,84.00
2019-05-12T08:54:07.980Z,80.00
2019-05-12T08:55:04.451Z,76.00
2019-05-12T08:56:12.655Z,76.00
2019-05-12T08:57:04.381Z,72.00
2019-05-12T08:58:04.416Z,64.00
2019-05-12T08:59:04.651Z,68.00
2019-05-12T09:00:08.671Z,64.00
2019-05-12T09:01:04.546Z,68.00
2019-05-12T09:02:07.310Z,68.00
2019-05-12T09:03:04.524Z,72.00
2019-05-12T09:04:06.584Z,72.00
2019-05-12T09:05:04.835Z,72.00
2019-05-12T09:06:09.235Z,76.00
2019-05-12T09:07:04.611Z,76.00
2019-05-12T09:08:04.624Z,76.00
2019-05-12T09:09:04.635Z,72.00
2019-05-12T09:10:04.662Z,72.00
2019-05-12T09:11:04.678Z,72.00
2019-05-12T09:12:04.700Z,76.00
2019-05-12T09:13:04.723Z,80.00
2019-05-12T09:14:05.808Z,80.00
2019-05-12T09:15:08.054Z,84.00
2019-05-12T09:16:04.784Z,88.00
2019-05-12T09:17:07.167Z,88.00
2019-05-12T09:18:05.156Z,92.00
2019-05-12T09:19:05.087Z,100.00
2019-05-12T09:20:08.274Z,100.00
2019-05-12T09:21:05.071Z,88.00
2019-05-12T09:22:15.969Z,88.00
2019-05-12T09:23:05.160Z,88.00
2019-05-12T09:24:04.951Z,84.00
2019-05-12T09:25:08.202Z,96.00
2019-05-12T09:26:04.995Z,104.00
2019-05-12T09:27:08.728Z,108.00
2019-05-12T09:28:05.035Z,116.00
2019-05-12T09:29:07.421Z,120.00
2019-05-12T09:30:09.530Z,124.00
2019-05-12T09:31:05.103Z,132.00
2019-05-12T09:32:09.354Z,140.00
2019-05-12T09:33:05.144Z,148.00
2019-05-12T09:34:11.524Z,148.00
2019-05-12T09:35:05.190Z,156.00
2019-05-12T09:36:05.205Z,160.00
2019-05-12T09:37:05.228Z,160.00
2019-05-12T09:38:06.195Z,148.00
2019-05-12T09:39:05.837Z,148.00
2019-05-12T09:40:05.288Z,144.00
2019-05-12T09:41:05.533Z,136.00
2019-05-12T09:42:05.330Z,124.00
2019-05-12T09:43:10.295Z,124.00
2019-05-12T09:44:05.502Z,128.00
2019-05-12T09:45:10.134Z,128.00
2019-05-12T09:46:05.420Z,124.00
2019-05-12T09:47:12.717Z,116.00
2019-05-12T09:48:09.158Z,116.00
2019-05-12T09:49:05.477Z,120.00
2019-05-12T09:50:09.763Z,120.00
2019-05-12T09:51:07.952Z,120.00
2019-05-12T09:52:05.541Z,120.00
2019-05-12T09:53:11.291Z,120.00
2019-05-12T09:54:05.584Z,116.00
2019-05-12T09:55:05.856Z,112.00
2019-05-12T09:56:05.626Z,108.00
2019-05-12T09:57:05.646Z,108.00
2019-05-12T09:58:05.665Z,116.00
2019-05-12T09:59:17.406Z,120.00
2019-05-12T10:00:05.735Z,124.00
2019-05-12T10:01:05.760Z,128.00
2019-05-12T10:02:10.707Z,140.00
2019-05-12T10:03:08.619Z,144.00
2019-05-12T10:04:10.380Z,148.00
2019-05-12T10:05:05.900Z,152.00
2019-05-12T10:06:05.837Z,152.00
2019-05-12T10:07:05.853Z,152.00
2019-05-12T10:08:05.875Z,148.00
2019-05-12T10:09:08.814Z,144.00
2019-05-12T10:10:05.916Z,140.00
2019-05-12T10:11:10.347Z,132.00
2019-05-12T10:12:05.965Z,128.00
2019-05-12T10:13:05.981Z,124.00
2019-05-12T10:14:10.588Z,120.00
2019-05-12T10:15:06.023Z,116.00
2019-05-12T10:16:08.863Z,116.00
2019-05-12T10:17:06.064Z,108.00
2019-05-12T10:18:10.814Z,104.00
2019-05-12T10:19:06.188Z,96.00
2019-05-12T10:20:06.156Z,88.00
2019-05-12T10:21:10.028Z,84.00
2019-05-12T10:22:06.170Z,76.00
2019-05-12T10:23:10.271Z,72.00
2019-05-12T10:24:06.212Z,68.00
2019-05-12T10:25:06.301Z,64.00
2019-05-12T10:26:09.983Z,60.00
2019-05-12T10:27:06.272Z,60.00
2019-05-12T10:28:11.458Z,60.00
2019-05-12T10:29:16.516Z,60.00
2019-05-12T10:30:12.421Z,56.00
2019-05-12T10:31:06.355Z,52.00
2019-05-12T10:32:06.375Z,52.00
2019-05-12T10:33:06.397Z,48.00
2019-05-12T10:34:06.421Z,48.00
2019-05-12T10:35:06.438Z,44.00
2019-05-12T10:36:08.572Z,44.00
2019-05-12T10:37:06.483Z,44.00
2019-05-12T10:38:10.748Z,40.00
2019-05-12T10:39:06.638Z,36.00
2019-05-12T10:40:06.577Z,32.00
2019-05-12T10:41:06.566Z,32.00
2019-05-12T10:42:06.585Z,28.00
2019-05-12T10:43:06.606Z,24.00
2019-05-12T10:44:06.634Z,24.00
2019-05-12T10:45:10.774Z,24.00
2019-05-12T10:46:06.670Z,20.00
2019-05-12T10:47:06.698Z,20.00
2019-05-12T10:48:06.726Z,24.00
2019-05-12T10:49:06.731Z,20.00
2019-05-12T10:50:06.753Z,20.00
2019-05-12T10:51:06.774Z,24.00
2019-05-12T10:52:06.798Z,24.00
2019-05-12T10:53:09.801Z,24.00
2019-05-12T10:54:12.529Z,20.00
2019-05-12T10:55:06.854Z,20.00
2019-05-12T10:56:06.894Z,20.00
2019-05-12T10:57:06.906Z,24.00
2019-05-12T10:58:07.336Z,20.00
2019-05-12T10:59:06.943Z,24.00
2019-05-12T11:00:06.959Z,20.00
2019-05-12T11:01:08.517Z,20.00
2019-05-12T11:02:07.006Z,20.00
2019-05-12T11:03:10.794Z,20.00
2019-05-12T11:04:07.045Z,20.00
2019-05-12T11:05:12.582Z,20.00
2019-05-12T11:06:07.825Z,16.00
2019-05-12T11:07:07.110Z,20.00
2019-05-12T11:08:11.115Z,20.00
2019-05-12T11:09:07.145Z,24.00
2019-05-12T11:10:15.421Z,24.00
2019-05-12T11:11:07.185Z,24.00
2019-05-12T11:12:07.216Z,20.00
2019-05-12T11:13:08.523Z,20.00
2019-05-12T11:14:07.253Z,20.00
2019-05-12T11:15:08.527Z,16.00
2019-05-12T11:16:07.293Z,16.00
2019-05-12T11:17:08.060Z,12.00
2019-05-12T11:18:07.341Z,12.00
2019-05-12T11:19:10.551Z,12.00
2019-05-12T11:20:07.375Z,8.00
2019-05-12T11:21:07.395Z,4.00
2019-05-12T11:22:07.433Z,4.00
2019-05-12T11:23:07.445Z,4.00
2019-05-12T11:24:07.456Z,4.00
2019-05-12T11:25:07.479Z,4.00
2019-05-12T11:26:07.500Z,4.00
2019-05-12T11:27:07.517Z,4.00
2019-05-12T11:28:07.538Z,4.00
2019-05-12T11:29:07.563Z,4.00
2019-05-12T11:30:07.580Z,4.00
2019-05-12T11:31:07.603Z,0.00
2019-05-12T11:32:07.723Z,0.00
2019-05-12T11:33:07.640Z,0.00
2019-05-12T11:34:07.661Z,4.00
2019-05-12T11:35:07.688Z,0.00
2019-05-12T11:36:07.705Z,0.00
2019-05-12T11:37:07.817Z,0.00
2019-05-12T11:38:07.745Z,0.00
2019-05-12T11:39:07.763Z,0.00
2019-05-12T11:40:07.784Z,0.00
2019-05-12T11:41:10.144Z,0.00
2019-05-12T11:42:07.875Z,0.00
2019-05-12T11:43:07.847Z,0.00
2019-05-12T11:44:07.867Z,0.00
2019-05-12T11:45:07.890Z,0.00
2019-05-12T11:46:07.908Z,0.00
2019-05-12T11:47:07.928Z,0.00
2019-05-12T11:48:10.194Z,0.00
2019-05-12T11:49:09.673Z,0.00
2019-05-12T11:50:09.880Z,0.00
2019-05-12T11:51:08.008Z,0.00
2019-05-12T11:52:15.291Z,0.00
2019-05-12T11:53:08.050Z,0.00
2019-05-12T11:54:09.013Z,0.00
2019-05-12T11:55:08.093Z,0.00
2019-05-12T11:56:09.330Z,0.00
2019-05-12T11:57:08.135Z,0.00
2019-05-12T11:58:11.463Z,0.00
2019-05-12T11:59:08.175Z,0.00
2019-05-12T12:00:08.192Z,0.00
2019-05-12T12:01:08.439Z,0.00
2019-05-12T12:02:08.234Z,0.00
2019-05-12T12:03:17.992Z,0.00
2019-05-12T12:04:08.275Z,0.00
2019-05-12T12:05:08.361Z,0.00
2019-05-12T12:06:08.316Z,0.00
2019-05-12T12:07:08.334Z,0.00
2019-05-12T12:08:08.373Z,0.00
2019-05-12T12:09:09.118Z,0.00
2019-05-12T12:10:08.401Z,0.00
2019-05-12T12:11:10.632Z,0.00
2019-05-12T12:12:08.474Z,0.00
2019-05-12T12:13:08.462Z,0.00
2019-05-12T12:14:10.512Z,0.00
2019-05-12T12:15:08.508Z,0.00
2019-05-12T12:16:11.259Z,0.00
2019-05-12T12:17:08.545Z,0.00
2019-05-12T12:18:15.505Z,0.00
2019-05-12T12:19:08.586Z,0.00
2019-05-12T12:20:13.195Z,0.00
2019-05-12T12:21:08.751Z,0.00
2019-05-12T12:22:08.642Z,0.00
2019-05-12T12:23:11.041Z,0.00
2019-05-12T12:24:08.682Z,0.00
2019-05-12T12:25:10.914Z,0.00
2019-05-12T12:26:08.727Z,0.00
2019-05-12T12:27:08.746Z,0.00
2019-05-12T12:28:08.964Z,0.00
2019-05-12T12:29:08.794Z,0.00
2019-05-12T12:30:18.574Z,0.00
2019-05-12T12:31:08.826Z,0.00
2019-05-12T12:32:10.008Z,0.00